Terminal Aerodrome Forecast
Issued by NWS

Home | Current Version | Previous Version | Text Only | Print | Product List | Glossary On
Versions: 1 2 3 4 5 6 7 8 9 10 11 12 13 14 15 16 17 18 19 20 21 22 23 24 25 26 27 28 29 30 31 32 33 34
000
FTAK31 PAFA 021133
TAFATA
TAF
PATA 021133Z 0212/0312 28005KT P6SM BKN035 OVC050
     FM021500 26010KT P6SM VCSH BKN035 BKN060
     FM022000 25012KT P6SM SCT035 BKN070=

USA.gov is the U.S. government's official web portal to all federal, state and local government web resources and services.